Time;durP1;ratioP1;P1;durP2;ratioP2;P2;SDS_P1;SDS_P2;PMS_P1;PMS_P2;Temp;Humidity;BMP_temperature;BMP_pressure;BME280_temperature;BME280_humidity;BME280_pressure;Samples;Min_cycle;Max_cycle;Signal;HPM_P1;HPM_P2
2023/04/21 00:01:31;;;;;;;7.33;6.23;;;;;;;;;;5053875;28;20202;-86
2023/04/21 00:03:59;;;;;;;8.37;6.67;;;;;;;;;;5054847;28;20202;-86
2023/04/21 00:06:30;;;;;;;7.27;5.87;;;;;;;;;;5054206;28;20194;-86
2023/04/21 00:08:58;;;;;;;12.40;9.57;;;;;;;;;;5054159;28;20218;-86
2023/04/21 00:11:27;;;;;;;12.20;10.17;;;;;;;;;;5054127;28;20209;-86
2023/04/21 00:13:56;;;;;;;6.30;5.67;;;;;;;;;;5054034;28;20219;-86
2023/04/21 00:16:26;;;;;;;7.13;5.97;;;;;;;;;;5053483;28;20201;-86
2023/04/21 00:18:54;;;;;;;10.07;6.13;;;;;;;;;;5054027;28;20199;-86
2023/04/21 00:21:23;;;;;;;12.33;9.27;;;;;;;;;;5053301;28;20204;-86
2023/04/21 00:23:51;;;;;;;11.30;8.20;;;;;;;;;;5053811;28;20230;-86
2023/04/21 00:26:20;;;;;;;12.43;7.73;;;;;;;;;;5053896;28;20260;-86
2023/04/21 00:28:48;;;;;;;9.30;7.37;;;;;;;;;;5053946;28;20300;-86
2023/04/21 00:31:17;;;;;;;10.77;7.70;;;;;;;;;;5053821;28;20226;-86
2023/04/21 00:33:46;;;;;;;7.27;5.83;;;;;;;;;;5054075;28;20197;-86
2023/04/21 00:36:15;;;;;;;7.70;6.83;;;;;;;;;;5053689;28;20297;-86
2023/04/21 00:38:43;;;;;;;14.23;11.50;;;;;;;;;;5053250;28;20233;-86
2023/04/21 00:41:12;;;;;;;11.30;9.13;;;;;;;;;;5053766;28;20259;-86
2023/04/21 00:43:55;;;;;;;10.93;8.33;;;;;;;;;;5053592;28;20255;-86
2023/04/21 00:46:23;;;;;;;14.07;9.87;;;;;;;;;;5052871;28;20234;-86
2023/04/21 00:48:56;;;;;;;13.60;10.90;;;;;;;;;;5053319;28;20214;-87
2023/04/21 00:51:25;;;;;;;10.70;7.70;;;;;;;;;;5053575;28;20222;-86
2023/04/21 00:53:54;;;;;;;9.87;6.87;;;;;;;;;;5053241;28;20284;-86
2023/04/21 00:56:23;;;;;;;7.30;6.63;;;;;;;;;;5053573;28;20203;-86
2023/04/21 00:58:53;;;;;;;13.43;7.87;;;;;;;;;;5053111;28;20220;-86
2023/04/21 01:01:21;;;;;;;7.57;6.47;;;;;;;;;;5053520;28;20206;-86
2023/04/21 01:03:50;;;;;;;11.50;7.67;;;;;;;;;;5053232;28;20276;-86
2023/04/21 01:06:20;;;;;;;7.77;6.33;;;;;;;;;;5053200;28;20275;-86
2023/04/21 01:08:49;;;;;;;11.63;10.47;;;;;;;;;;5052949;28;20229;-87
2023/04/21 01:11:17;;;;;;;16.40;13.87;;;;;;;;;;5053136;28;20206;-87
2023/04/21 01:13:47;;;;;;;13.97;11.57;;;;;;;;;;5053826;28;20259;-86
2023/04/21 01:16:17;;;;;;;12.87;9.77;;;;;;;;;;5053498;28;20228;-87
2023/04/21 01:18:46;;;;;;;10.80;8.23;;;;;;;;;;5052805;28;20197;-86
2023/04/21 01:21:14;;;;;;;14.40;10.83;;;;;;;;;;5053030;28;20205;-87
2023/04/21 01:23:44;;;;;;;12.73;9.07;;;;;;;;;;5053272;28;20303;-87
2023/04/21 01:26:13;;;;;;;8.57;6.80;;;;;;;;;;5052672;28;20258;-87
2023/04/21 01:28:41;;;;;;;4.90;4.50;;;;;;;;;;5052840;28;20300;-87
2023/04/21 01:31:09;;;;;;;6.83;5.27;;;;;;;;;;5053041;28;20233;-87
2023/04/21 01:33:38;;;;;;;14.30;9.27;;;;;;;;;;5052492;28;20205;-87
2023/04/21 01:36:07;;;;;;;10.10;7.07;;;;;;;;;;5052984;28;20259;-87
2023/04/21 01:38:38;;;;;;;13.70;7.97;;;;;;;;;;5052862;28;20230;-87
2023/04/21 01:41:08;;;;;;;16.43;10.77;;;;;;;;;;5052497;28;20303;-87
2023/04/21 01:43:37;;;;;;;9.67;8.27;;;;;;;;;;5052809;28;20259;-87
2023/04/21 01:46:05;;;;;;;8.57;6.53;;;;;;;;;;5053086;28;20278;-87
2023/04/21 01:48:34;;;;;;;28.70;16.80;;;;;;;;;;5052067;28;20190;-87
2023/04/21 01:51:02;;;;;;;19.00;13.53;;;;;;;;;;5052339;28;20202;-87
2023/04/21 01:53:30;;;;;;;4.43;3.73;;;;;;;;;;5052004;28;20240;-86
2023/04/21 01:55:59;;;;;;;17.90;9.90;;;;;;;;;;5052889;28;20260;-87
2023/04/21 01:58:28;;;;;;;11.60;8.70;;;;;;;;;;5052082;28;20210;-87
2023/04/21 02:00:57;;;;;;;14.60;10.07;;;;;;;;;;5052104;28;20234;-87
2023/04/21 02:03:25;;;;;;;27.57;17.97;;;;;;;;;;5052170;28;20203;-87
2023/04/21 02:05:54;;;;;;;13.80;10.07;;;;;;;;;;5052263;28;20293;-87
2023/04/21 02:08:23;;;;;;;16.73;10.93;;;;;;;;;;5051888;28;20270;-86
2023/04/21 02:10:51;;;;;;;16.33;9.23;;;;;;;;;;5052171;28;20318;-87
2023/04/21 02:13:20;;;;;;;21.33;14.23;;;;;;;;;;5051776;28;20225;-87
2023/04/21 02:15:52;;;;;;;18.63;13.23;;;;;;;;;;5052108;28;20196;-87
2023/04/21 02:18:40;;;;;;;7.20;6.53;;;;;;;;;;5051943;28;20264;-87
2023/04/21 02:21:08;;;;;;;11.63;9.10;;;;;;;;;;5051360;28;20218;-87
2023/04/21 02:23:37;;;;;;;12.93;9.80;;;;;;;;;;5051618;28;20216;-87
2023/04/21 02:26:05;;;;;;;19.80;13.90;;;;;;;;;;5052308;28;20205;-87
2023/04/21 02:28:34;;;;;;;9.40;6.53;;;;;;;;;;5051743;28;20283;-87
2023/04/21 02:31:04;;;;;;;19.47;13.97;;;;;;;;;;5051826;28;20264;-87
2023/04/21 02:33:32;;;;;;;4.17;3.77;;;;;;;;;;5051717;28;20205;-87
2023/04/21 02:36:00;;;;;;;26.47;15.70;;;;;;;;;;5051485;28;20209;-87
2023/04/21 02:38:29;;;;;;;34.07;18.63;;;;;;;;;;5051854;28;20293;-87
2023/04/21 02:40:58;;;;;;;24.27;14.53;;;;;;;;;;5051272;28;20201;-87
2023/04/21 02:43:26;;;;;;;18.80;11.47;;;;;;;;;;5051222;28;20197;-87
2023/04/21 02:45:55;;;;;;;18.47;12.87;;;;;;;;;;5051435;28;20193;-87
2023/04/21 02:48:25;;;;;;;24.77;14.20;;;;;;;;;;5051987;28;20221;-87
2023/04/21 02:50:54;;;;;;;19.73;14.37;;;;;;;;;;5051466;28;20262;-87
2023/04/21 02:53:22;;;;;;;18.03;10.50;;;;;;;;;;5051674;28;20213;-87
2023/04/21 02:55:51;;;;;;;12.60;9.60;;;;;;;;;;5032062;28;20212;-87
2023/04/21 02:58:19;;;;;;;9.27;6.43;;;;;;;;;;5032394;28;20245;-87
2023/04/21 03:00:48;;;;;;;19.13;12.63;;;;;;;;;;5031383;28;20203;-87
2023/04/21 03:03:16;;;;;;;13.93;10.53;;;;;;;;;;5032016;28;20261;-86
2023/04/21 03:05:46;;;;;;;15.50;11.33;;;;;;;;;;5031662;28;20255;-86
2023/04/21 03:08:15;;;;;;;6.33;5.70;;;;;;;;;;5031768;28;20263;-87
2023/04/21 03:10:43;;;;;;;9.70;8.17;;;;;;;;;;5031785;28;20329;-87
2023/04/21 03:13:11;;;;;;;10.53;8.83;;;;;;;;;;5032346;28;20237;-87
2023/04/21 03:15:40;;;;;;;6.77;5.57;;;;;;;;;;5031639;28;20299;-87
2023/04/21 03:18:08;;;;;;;9.97;7.57;;;;;;;;;;5031543;28;20199;-87
2023/04/21 03:20:37;;;;;;;16.13;9.93;;;;;;;;;;5031161;28;20201;-87
2023/04/21 03:23:06;;;;;;;18.43;12.13;;;;;;;;;;5030850;28;20214;-87
2023/04/21 03:25:35;;;;;;;7.57;5.73;;;;;;;;;;5031634;28;20203;-87
2023/04/21 03:28:03;;;;;;;9.10;5.23;;;;;;;;;;5031224;28;20219;-87
2023/04/21 03:30:32;;;;;;;15.60;8.57;;;;;;;;;;5030950;28;20265;-87
2023/04/21 03:33:00;;;;;;;5.10;3.70;;;;;;;;;;5031549;28;20203;-87
2023/04/21 03:35:29;;;;;;;3.33;3.07;;;;;;;;;;5031302;28;20236;-85
2023/04/21 03:37:58;;;;;;;5.20;4.53;;;;;;;;;;5030343;28;20263;-85
2023/04/21 03:40:29;;;;;;;33.23;3.33;;;;;;;;;;5030798;28;20183;-84
2023/04/21 03:42:57;;;;;;;4.27;3.00;;;;;;;;;;5031265;28;20210;-85
2023/04/21 03:45:25;;;;;;;4.53;3.47;;;;;;;;;;5030968;28;20310;-85
2023/04/21 03:47:54;;;;;;;5.53;3.87;;;;;;;;;;5030720;28;20252;-85
2023/04/21 03:50:23;;;;;;;6.53;4.67;;;;;;;;;;5030699;28;20203;-85
2023/04/21 03:52:51;;;;;;;3.07;2.87;;;;;;;;;;5031068;28;20206;-84
2023/04/21 03:55:20;;;;;;;5.67;5.13;;;;;;;;;;5047413;28;20332;-85
2023/04/21 03:57:50;;;;;;;15.17;11.13;;;;;;;;;;5054854;28;20271;-85
2023/04/21 04:00:19;;;;;;;21.20;11.70;;;;;;;;;;5054322;28;20194;-85
2023/04/21 04:02:48;;;;;;;9.10;7.20;;;;;;;;;;5054134;28;20232;-85
2023/04/21 04:05:17;;;;;;;4.40;3.83;;;;;;;;;;5054295;28;20198;-84
2023/04/21 04:07:45;;;;;;;8.50;6.70;;;;;;;;;;5054121;28;20206;-84
2023/04/21 04:10:14;;;;;;;10.83;7.80;;;;;;;;;;5053700;28;20291;-84
2023/04/21 04:12:44;;;;;;;4.27;3.43;;;;;;;;;;5053919;28;20202;-85
2023/04/21 04:15:14;;;;;;;5.33;4.70;;;;;;;;;;5054202;28;20232;-85
2023/04/21 04:17:42;;;;;;;5.13;4.07;;;;;;;;;;5053809;28;20240;-84
2023/04/21 04:20:11;;;;;;;13.80;5.43;;;;;;;;;;5053946;28;20220;-83
2023/04/21 04:22:40;;;;;;;14.00;8.47;;;;;;;;;;5054224;28;20206;-88
2023/04/21 04:25:09;;;;;;;4.13;3.00;;;;;;;;;;5053863;28;20191;-87
2023/04/21 04:27:37;;;;;;;6.83;3.63;;;;;;;;;;5054039;28;20299;-87
2023/04/21 04:30:06;;;;;;;5.07;4.67;;;;;;;;;;5054424;28;20217;-87
2023/04/21 04:32:38;;;;;;;9.97;6.53;;;;;;;;;;5054332;28;20205;-88
2023/04/21 04:35:07;;;;;;;11.20;6.00;;;;;;;;;;5053929;28;20220;-87
2023/04/21 04:37:36;;;;;;;9.27;6.63;;;;;;;;;;5054192;28;20205;-87
2023/04/21 04:40:08;;;;;;;14.30;5.73;;;;;;;;;;5054393;28;20198;-87
2023/04/21 04:42:38;;;;;;;11.23;7.53;;;;;;;;;;5053290;28;20205;-88
2023/04/21 04:45:08;;;;;;;1.17;1.17;;;;;;;;;;5053876;28;20221;-88
2023/04/21 04:47:37;;;;;;;5.23;4.77;;;;;;;;;;5053888;28;20262;-88
2023/04/21 04:50:07;;;;;;;4.33;3.97;;;;;;;;;;5053901;28;20207;-89
2023/04/21 04:52:36;;;;;;;6.37;4.70;;;;;;;;;;5053077;28;20232;-85
2023/04/21 04:55:04;;;;;;;6.40;4.83;;;;;;;;;;5053019;28;20244;-89
2023/04/21 04:57:33;;;;;;;3.67;3.37;;;;;;;;;;5053509;28;20292;-87
2023/04/21 05:00:06;;;;;;;7.77;5.47;;;;;;;;;;5054166;28;20207;-87
2023/04/21 05:02:34;;;;;;;6.50;5.27;;;;;;;;;;5053461;28;20201;-87
2023/04/21 05:05:05;;;;;;;9.57;7.30;;;;;;;;;;5053355;28;20202;-87
2023/04/21 05:07:36;;;;;;;5.63;4.97;;;;;;;;;;5053247;28;20235;-88
2023/04/21 05:10:04;;;;;;;7.77;6.10;;;;;;;;;;5053939;28;20201;-88
2023/04/21 05:12:33;;;;;;;16.07;10.03;;;;;;;;;;5052973;28;20213;-88
2023/04/21 05:15:01;;;;;;;14.07;10.90;;;;;;;;;;5053399;28;20198;-89
2023/04/21 05:17:30;;;;;;;8.27;5.90;;;;;;;;;;5053414;28;20237;-87
2023/04/21 05:19:58;;;;;;;7.50;6.83;;;;;;;;;;5052570;28;20215;-85
2023/04/21 05:22:29;;;;;;;4.43;3.23;;;;;;;;;;5052657;28;20251;-85
2023/04/21 05:24:58;;;;;;;16.73;11.53;;;;;;;;;;5052594;28;20199;-85
2023/04/21 05:27:27;;;;;;;21.43;16.53;;;;;;;;;;5052335;28;20271;-85
2023/04/21 05:29:55;;;;;;;8.33;7.43;;;;;;;;;;5052396;28;20194;-86
2023/04/21 05:32:24;;;;;;;19.47;12.27;;;;;;;;;;5052664;28;20222;-88
2023/04/21 05:34:53;;;;;;;27.70;17.93;;;;;;;;;;5052972;28;20197;-87
2023/04/21 05:37:21;;;;;;;20.37;14.67;;;;;;;;;;5053125;28;20202;-89
2023/04/21 05:39:51;;;;;;;15.37;8.20;;;;;;;;;;5053173;28;20236;-89
2023/04/21 05:42:20;;;;;;;22.00;16.27;;;;;;;;;;5053017;28;20205;-88
2023/04/21 05:44:49;;;;;;;13.87;10.27;;;;;;;;;;5053461;28;20206;-88
2023/04/21 05:47:18;;;;;;;13.53;8.37;;;;;;;;;;5053098;28;20271;-88
2023/04/21 05:49:48;;;;;;;20.63;15.23;;;;;;;;;;5053423;28;20201;-89
2023/04/21 05:52:17;;;;;;;16.07;11.37;;;;;;;;;;5052753;28;20214;-88
2023/04/21 05:54:46;;;;;;;12.57;8.23;;;;;;;;;;5053063;28;20265;-89
2023/04/21 05:57:16;;;;;;;5.47;4.93;;;;;;;;;;5053024;28;20276;-89
2023/04/21 05:59:45;;;;;;;20.47;15.27;;;;;;;;;;5052958;28;20194;-88
2023/04/21 06:02:13;;;;;;;18.27;15.30;;;;;;;;;;5053637;28;20267;-90
2023/04/21 06:04:42;;;;;;;22.83;16.67;;;;;;;;;;5053147;28;20213;-90
2023/04/21 06:07:12;;;;;;;11.17;8.67;;;;;;;;;;5053817;28;20212;-91
2023/04/21 06:09:41;;;;;;;23.23;14.37;;;;;;;;;;5053132;28;20202;-91
2023/04/21 06:12:09;;;;;;;12.70;9.27;;;;;;;;;;5053133;28;20229;-88
2023/04/21 06:14:39;;;;;;;23.77;16.97;;;;;;;;;;5052662;28;20202;-88
2023/04/21 06:17:07;;;;;;;27.47;18.20;;;;;;;;;;5052274;28;20241;-88
2023/04/21 06:19:38;;;;;;;25.67;19.57;;;;;;;;;;5053167;28;20301;-88
2023/04/21 06:22:09;;;;;;;18.03;10.13;;;;;;;;;;5052794;28;20232;-90
2023/04/21 06:24:37;;;;;;;24.37;13.07;;;;;;;;;;5052525;28;20203;-90
2023/04/21 06:27:10;;;;;;;28.80;16.63;;;;;;;;;;5052620;28;20226;-90
2023/04/21 06:29:41;;;;;;;19.87;12.83;;;;;;;;;;5052447;28;20202;-91
2023/04/21 06:32:09;;;;;;;25.00;14.80;;;;;;;;;;5053489;28;20217;-90
2023/04/21 06:34:38;;;;;;;23.20;16.07;;;;;;;;;;5053448;28;20205;-90
2023/04/21 06:37:06;;;;;;;16.63;11.53;;;;;;;;;;5052872;28;20256;-90
2023/04/21 06:39:35;;;;;;;26.00;17.87;;;;;;;;;;5052114;28;20243;-90
2023/04/21 06:42:04;;;;;;;30.00;19.23;;;;;;;;;;5052267;28;20191;-90
2023/04/21 06:44:32;;;;;;;19.50;13.90;;;;;;;;;;5052713;28;20225;-90
2023/04/21 06:47:02;;;;;;;25.60;19.17;;;;;;;;;;5052766;28;20226;-90
2023/04/21 06:49:32;;;;;;;14.97;8.67;;;;;;;;;;5052631;28;20200;-87
2023/04/21 06:52:01;;;;;;;27.90;21.17;;;;;;;;;;5052713;28;20210;-87
2023/04/21 06:54:29;;;;;;;32.83;24.40;;;;;;;;;;5051377;28;20253;-87
2023/04/21 06:56:58;;;;;;;23.80;17.27;;;;;;;;;;5052072;28;20300;-87
2023/04/21 06:59:26;;;;;;;14.87;12.60;;;;;;;;;;5051465;28;20208;-88
2023/04/21 07:01:55;;;;;;;11.43;9.57;;;;;;;;;;5051937;28;20194;-87
2023/04/21 07:04:28;;;;;;;11.50;10.40;;;;;;;;;;5051823;28;20212;-88
2023/04/21 07:06:57;;;;;;;18.53;13.27;;;;;;;;;;5052125;28;20198;-88
2023/04/21 07:09:32;;;;;;;16.10;12.87;;;;;;;;;;5052314;28;20214;-87
2023/04/21 07:12:01;;;;;;;13.83;11.23;;;;;;;;;;5052136;28;20244;-88
2023/04/21 07:14:30;;;;;;;20.20;13.27;;;;;;;;;;5052170;28;20237;-88
2023/04/21 07:16:58;;;;;;;24.83;14.97;;;;;;;;;;5051979;28;20219;-88
2023/04/21 07:19:28;;;;;;;17.37;12.93;;;;;;;;;;5052583;28;20301;-88
2023/04/21 07:21:57;;;;;;;11.27;7.50;;;;;;;;;;5052736;28;20268;-90
2023/04/21 07:24:25;;;;;;;22.67;12.93;;;;;;;;;;5051877;28;20209;-87
2023/04/21 07:26:53;;;;;;;16.87;14.43;;;;;;;;;;5051865;28;20223;-88
2023/04/21 07:29:22;;;;;;;21.73;16.10;;;;;;;;;;5053666;28;20186;-87
2023/04/21 07:31:50;;;;;;;23.23;17.90;;;;;;;;;;5056352;28;20229;-88
2023/04/21 07:34:19;;;;;;;10.23;5.83;;;;;;;;;;5055840;28;20202;-87
2023/04/21 07:36:49;;;;;;;13.40;11.10;;;;;;;;;;5055576;28;20277;-87
2023/04/21 07:39:17;;;;;;;16.47;11.90;;;;;;;;;;5055077;28;20306;-88
2023/04/21 07:41:46;;;;;;;21.90;14.70;;;;;;;;;;5054383;28;20221;-88
2023/04/21 07:44:14;;;;;;;11.17;8.80;;;;;;;;;;5055557;28;20206;-88
2023/04/21 07:46:43;;;;;;;11.17;8.43;;;;;;;;;;5056173;28;20210;-88
2023/04/21 07:49:11;;;;;;;15.30;11.80;;;;;;;;;;5055189;28;20194;-88
2023/04/21 07:51:40;;;;;;;18.60;14.90;;;;;;;;;;5055992;28;20297;-88
2023/04/21 07:54:10;;;;;;;18.30;15.80;;;;;;;;;;5055859;28;20238;-88
2023/04/21 07:56:39;;;;;;;14.93;11.13;;;;;;;;;;5055637;28;20263;-88
2023/04/21 07:59:07;;;;;;;16.80;14.30;;;;;;;;;;5055617;28;20202;-88
2023/04/21 08:01:35;;;;;;;3.87;3.57;;;;;;;;;;5055415;28;20186;-88
2023/04/21 08:04:05;;;;;;;17.67;14.50;;;;;;;;;;5055537;28;20191;-89
2023/04/21 08:06:33;;;;;;;23.27;15.97;;;;;;;;;;5055385;28;20201;-87
2023/04/21 08:09:02;;;;;;;16.40;12.53;;;;;;;;;;5055051;28;20297;-88
2023/04/21 08:11:33;;;;;;;19.07;11.77;;;;;;;;;;5055178;28;20199;-88
2023/04/21 08:14:02;;;;;;;21.33;16.07;;;;;;;;;;5054343;28;20219;-88
2023/04/21 08:16:31;;;;;;;15.90;13.40;;;;;;;;;;5054685;28;20210;-88
2023/04/21 08:18:59;;;;;;;16.93;15.03;;;;;;;;;;5054726;28;20238;-88
2023/04/21 08:21:27;;;;;;;17.03;14.70;;;;;;;;;;5054350;28;20191;-88
2023/04/21 08:23:58;;;;;;;16.70;13.40;;;;;;;;;;5054442;28;20205;-88
2023/04/21 08:26:28;;;;;;;16.17;14.43;;;;;;;;;;5054843;28;20245;-88
2023/04/21 08:28:58;;;;;;;16.23;12.10;;;;;;;;;;5055085;28;20206;-88
2023/04/21 08:31:29;;;;;;;31.37;17.40;;;;;;;;;;5055749;28;20201;-88
2023/04/21 08:34:00;;;;;;;10.53;6.47;;;;;;;;;;5056949;28;20250;-88
2023/04/21 08:36:30;;;;;;;11.50;10.33;;;;;;;;;;5055682;28;20208;-88
2023/04/21 08:38:59;;;;;;;16.60;11.17;;;;;;;;;;5055809;28;20209;-88
2023/04/21 08:41:28;;;;;;;17.47;12.47;;;;;;;;;;5054667;28;20202;-88
2023/04/21 08:43:56;;;;;;;18.00;13.83;;;;;;;;;;5054620;28;20190;-88
2023/04/21 08:46:28;;;;;;;15.50;13.27;;;;;;;;;;5054473;28;20198;-88
2023/04/21 08:48:59;;;;;;;17.90;14.43;;;;;;;;;;5054227;28;20210;-88
2023/04/21 08:51:29;;;;;;;12.73;11.37;;;;;;;;;;5054465;28;20207;-88
2023/04/21 08:53:57;;;;;;;13.73;12.43;;;;;;;;;;5054874;28;20215;-88
2023/04/21 08:56:26;;;;;;;17.67;15.67;;;;;;;;;;5054481;28;20199;-88
2023/04/21 08:58:57;;;;;;;20.73;16.03;;;;;;;;;;5053942;28;20199;-88
2023/04/21 09:01:30;;;;;;;20.23;17.63;;;;;;;;;;5054300;28;20198;-90
2023/04/21 09:04:16;;;;;;;23.90;21.37;;;;;;;;;;5054888;28;20198;-89
2023/04/21 09:06:45;;;;;;;20.23;17.63;;;;;;;;;;5054292;28;20191;-86
2023/04/21 09:09:16;;;;;;;23.00;18.00;;;;;;;;;;5053271;28;20197;-86
2023/04/21 09:11:55;;;;;;;21.83;15.83;;;;;;;;;;5053670;28;20201;-87
2023/04/21 09:14:29;;;;;;;15.23;13.23;;;;;;;;;;5053201;28;20210;-87
2023/04/21 09:17:02;;;;;;;21.07;18.20;;;;;;;;;;5053302;28;20241;-87
2023/04/21 09:19:30;;;;;;;24.80;17.77;;;;;;;;;;5053465;28;20228;-87
2023/04/21 09:22:00;;;;;;;18.83;14.53;;;;;;;;;;5053222;28;20198;-87
2023/04/21 09:24:29;;;;;;;16.03;12.57;;;;;;;;;;5053192;28;20199;-87
2023/04/21 09:26:58;;;;;;;19.53;17.47;;;;;;;;;;5053434;28;20246;-87
2023/04/21 09:29:26;;;;;;;15.63;12.83;;;;;;;;;;5053157;28;20202;-87
2023/04/21 09:31:55;;;;;;;11.87;10.43;;;;;;;;;;5053154;28;20252;-87
2023/04/21 09:34:26;;;;;;;18.63;16.07;;;;;;;;;;5053319;28;20215;-87
2023/04/21 09:37:02;;;;;;;17.67;13.63;;;;;;;;;;5053231;28;20207;-87
2023/04/21 09:39:31;;;;;;;16.10;13.20;;;;;;;;;;5052502;28;20214;-87
2023/04/21 09:42:16;;;;;;;8.00;6.97;;;;;;;;;;5053511;28;20233;-88
2023/04/21 09:44:45;;;;;;;13.87;10.20;;;;;;;;;;5053666;28;20194;-87
2023/04/21 09:47:29;;;;;;;22.03;17.37;;;;;;;;;;5052606;28;20201;-87
2023/04/21 09:49:59;;;;;;;19.20;16.30;;;;;;;;;;5052841;28;20199;-87
2023/04/21 09:52:29;;;;;;;15.83;13.30;;;;;;;;;;5051776;28;20204;-87
2023/04/21 09:55:12;;;;;;;17.13;14.50;;;;;;;;;;5052409;28;20248;-87
2023/04/21 09:57:43;;;;;;;10.63;7.93;;;;;;;;;;5052915;28;20208;-87
2023/04/21 10:00:12;;;;;;;19.87;12.20;;;;;;;;;;5053403;28;20215;-88
2023/04/21 10:02:43;;;;;;;16.80;14.80;;;;;;;;;;5052358;28;20214;-85
2023/04/21 10:05:14;;;;;;;19.57;13.10;;;;;;;;;;5052724;28;20275;-85
2023/04/21 10:07:42;;;;;;;16.17;13.73;;;;;;;;;;5053048;28;20207;-86
2023/04/21 10:10:15;;;;;;;12.13;9.40;;;;;;;;;;5052251;28;20212;-84
2023/04/21 10:12:45;;;;;;;15.77;11.10;;;;;;;;;;5052401;28;20219;-86
2023/04/21 10:15:28;;;;;;;18.53;15.00;;;;;;;;;;5052751;28;20306;-86
2023/04/21 10:18:11;;;;;;;18.27;15.60;;;;;;;;;;5051780;28;20197;-86
2023/04/21 10:20:52;;;;;;;18.77;14.07;;;;;;;;;;5052580;28;20266;-87
2023/04/21 10:23:31;;;;;;;11.03;9.83;;;;;;;;;;5035282;28;20204;-85
2023/04/21 10:26:05;;;;;;;17.50;12.83;;;;;;;;;;5051795;28;20201;-85
2023/04/21 10:28:44;;;;;;;8.60;7.33;;;;;;;;;;5052297;28;20222;-86
2023/04/21 10:31:23;;;;;;;11.67;10.47;;;;;;;;;;5053182;28;20211;-85
2023/04/21 10:34:10;;;;;;;13.07;9.63;;;;;;;;;;5063971;28;20306;-87
2023/04/21 10:36:52;;;;;;;11.77;8.60;;;;;;;;;;5067030;28;20214;-87
2023/04/21 10:39:28;;;;;;;19.00;14.87;;;;;;;;;;5069265;28;20302;-86
2023/04/21 10:41:58;;;;;;;8.93;6.73;;;;;;;;;;5065364;28;20211;-87
2023/04/21 10:44:29;;;;;;;14.77;11.87;;;;;;;;;;5061130;28;20207;-86
2023/04/21 10:46:59;;;;;;;17.33;13.30;;;;;;;;;;5071164;28;20237;-87
2023/04/21 10:49:29;;;;;;;14.73;12.23;;;;;;;;;;5087407;28;20202;-85
2023/04/21 10:52:05;;;;;;;11.57;10.37;;;;;;;;;;5071475;28;20229;-85
2023/04/21 10:54:40;;;;;;;17.67;12.90;;;;;;;;;;5070530;28;20229;-86
2023/04/21 10:57:10;;;;;;;17.33;12.87;;;;;;;;;;5070089;28;20313;-85
2023/04/21 10:59:39;;;;;;;16.57;14.33;;;;;;;;;;5070765;28;20212;-87
2023/04/21 11:02:08;;;;;;;23.03;9.10;;;;;;;;;;5075792;28;20204;-86
2023/04/21 11:04:38;;;;;;;15.20;11.67;;;;;;;;;;5076598;28;20227;-84
2023/04/21 11:07:10;;;;;;;19.23;11.17;;;;;;;;;;5076148;28;20212;-86
2023/04/21 11:09:40;;;;;;;17.57;14.60;;;;;;;;;;5075464;28;20231;-87
2023/04/21 11:12:10;;;;;;;11.83;8.27;;;;;;;;;;5076557;28;20222;-83
2023/04/21 11:14:41;;;;;;;18.23;15.07;;;;;;;;;;5079425;28;20287;-84
2023/04/21 11:17:11;;;;;;;17.73;15.97;;;;;;;;;;5075421;28;20499;-84
2023/04/21 11:19:40;;;;;;;18.63;14.43;;;;;;;;;;5074451;28;20207;-84
2023/04/21 11:22:10;;;;;;;18.40;14.90;;;;;;;;;;5075915;28;20274;-86
2023/04/21 11:24:38;;;;;;;15.70;13.37;;;;;;;;;;5071695;28;20202;-85
2023/04/21 11:27:11;;;;;;;8.73;5.90;;;;;;;;;;5075154;28;20276;-86
2023/04/21 11:29:39;;;;;;;23.43;16.80;;;;;;;;;;5077011;28;20204;-84
2023/04/21 11:32:12;;;;;;;21.97;15.13;;;;;;;;;;5073196;28;20226;-85
2023/04/21 11:34:40;;;;;;;18.77;15.03;;;;;;;;;;5067139;28;20249;-86
2023/04/21 11:37:10;;;;;;;17.43;14.43;;;;;;;;;;5071588;28;20212;-83
2023/04/21 11:39:42;;;;;;;16.83;8.80;;;;;;;;;;5070362;28;20275;-84
2023/04/21 11:42:21;;;;;;;15.80;13.07;;;;;;;;;;5069386;28;20333;-85
2023/04/21 11:44:49;;;;;;;16.30;11.27;;;;;;;;;;5055665;28;20201;-85
2023/04/21 11:47:20;;;;;;;16.33;12.47;;;;;;;;;;5055910;28;20200;-85
2023/04/21 11:49:49;;;;;;;12.23;9.47;;;;;;;;;;5054719;28;20199;-84
2023/04/21 11:52:26;;;;;;;13.60;10.90;;;;;;;;;;5054370;28;20195;-85
2023/04/21 11:54:56;;;;;;;20.20;16.43;;;;;;;;;;5054622;28;20239;-84
2023/04/21 11:57:25;;;;;;;18.30;14.43;;;;;;;;;;5054758;28;20211;-85
2023/04/21 11:59:53;;;;;;;11.80;9.60;;;;;;;;;;5054148;28;20226;-85
2023/04/21 12:02:22;;;;;;;17.47;13.20;;;;;;;;;;5054720;28;20207;-84
2023/04/21 12:04:58;;;;;;;19.23;14.37;;;;;;;;;;5054871;28;20239;-85
2023/04/21 12:07:30;;;;;;;14.77;11.97;;;;;;;;;;5054554;28;20231;-85
2023/04/21 12:09:58;;;;;;;14.27;8.67;;;;;;;;;;5054393;28;20231;-85
2023/04/21 12:12:27;;;;;;;15.13;12.63;;;;;;;;;;5054685;28;20211;-85
2023/04/21 12:14:55;;;;;;;15.87;10.63;;;;;;;;;;5053465;28;20210;-85
2023/04/21 12:17:24;;;;;;;17.40;11.60;;;;;;;;;;5053481;28;20272;-84
2023/04/21 12:19:52;;;;;;;11.30;10.10;;;;;;;;;;5054132;28;20223;-85
2023/04/21 12:22:22;;;;;;;15.00;11.47;;;;;;;;;;5054307;28;20201;-85
2023/04/21 12:24:52;;;;;;;18.13;13.20;;;;;;;;;;5054386;28;20200;-84
2023/04/21 12:27:22;;;;;;;15.30;11.30;;;;;;;;;;5054151;28;20247;-85
2023/04/21 12:29:50;;;;;;;15.53;13.13;;;;;;;;;;5054136;28;20216;-85
2023/04/21 12:32:19;;;;;;;17.70;11.10;;;;;;;;;;5053775;28;20195;-85
2023/04/21 12:34:47;;;;;;;19.53;14.57;;;;;;;;;;5054624;28;20280;-86
2023/04/21 12:37:16;;;;;;;14.43;12.93;;;;;;;;;;5054442;28;20216;-86
2023/04/21 12:39:44;;;;;;;17.80;15.83;;;;;;;;;;5053961;28;20220;-86
2023/04/21 12:42:14;;;;;;;11.60;9.20;;;;;;;;;;5054092;28;20297;-86
2023/04/21 12:44:43;;;;;;;18.43;12.60;;;;;;;;;;5054257;28;20240;-85
2023/04/21 12:47:11;;;;;;;19.17;15.30;;;;;;;;;;5053647;28;20231;-87
2023/04/21 12:49:40;;;;;;;10.47;9.10;;;;;;;;;;5053708;28;20205;-86
2023/04/21 12:52:08;;;;;;;12.93;9.43;;;;;;;;;;5053715;28;20230;-86
2023/04/21 12:54:37;;;;;;;10.73;9.27;;;;;;;;;;5053168;28;20240;-86
2023/04/21 12:57:06;;;;;;;12.27;9.33;;;;;;;;;;5053734;28;20208;-85
2023/04/21 12:59:36;;;;;;;18.00;13.77;;;;;;;;;;5053521;28;20212;-86
2023/04/21 13:02:05;;;;;;;11.57;10.37;;;;;;;;;;5053709;28;20205;-86
2023/04/21 13:04:34;;;;;;;16.90;15.10;;;;;;;;;;5053351;28;20210;-86
2023/04/21 13:07:02;;;;;;;8.23;7.40;;;;;;;;;;5053479;28;20198;-86
2023/04/21 13:09:31;;;;;;;16.77;14.33;;;;;;;;;;5054330;28;20197;-87
2023/04/21 13:12:01;;;;;;;17.63;15.73;;;;;;;;;;5053172;28;20204;-87
2023/04/21 13:14:29;;;;;;;22.17;15.20;;;;;;;;;;5053006;28;20210;-86
2023/04/21 13:16:59;;;;;;;20.70;16.13;;;;;;;;;;5053409;28;20251;-86
2023/04/21 13:19:28;;;;;;;13.27;11.83;;;;;;;;;;5052813;28;20225;-86
2023/04/21 13:21:57;;;;;;;18.03;14.83;;;;;;;;;;5053512;28;20201;-86
2023/04/21 13:24:26;;;;;;;21.20;17.03;;;;;;;;;;5053193;28;20233;-86
2023/04/21 13:26:54;;;;;;;20.50;17.83;;;;;;;;;;5052325;28;20218;-85
2023/04/21 13:29:23;;;;;;;13.90;11.80;;;;;;;;;;5053498;28;20199;-86
2023/04/21 13:31:51;;;;;;;20.00;15.73;;;;;;;;;;5052863;28;20197;-86
2023/04/21 13:34:21;;;;;;;18.97;16.07;;;;;;;;;;5052835;28;20205;-85
2023/04/21 13:36:49;;;;;;;10.33;9.03;;;;;;;;;;5052914;28;20288;-86
2023/04/21 13:39:18;;;;;;;17.80;14.20;;;;;;;;;;5052929;28;20207;-86
2023/04/21 13:41:46;;;;;;;19.23;12.77;;;;;;;;;;5052533;28;20207;-86
2023/04/21 13:44:15;;;;;;;15.97;13.43;;;;;;;;;;5052603;28;20417;-86
2023/04/21 13:46:43;;;;;;;18.50;15.43;;;;;;;;;;5052747;28;20243;-86
2023/04/21 13:49:12;;;;;;;14.53;13.00;;;;;;;;;;5052639;28;20217;-86
2023/04/21 13:51:42;;;;;;;18.20;16.27;;;;;;;;;;5052377;28;20225;-85
2023/04/21 13:54:10;;;;;;;18.33;14.20;;;;;;;;;;5052443;28;20240;-85
2023/04/21 13:56:39;;;;;;;16.23;13.77;;;;;;;;;;5051848;28;20268;-85
2023/04/21 13:59:09;;;;;;;15.30;13.03;;;;;;;;;;5052431;28;20228;-85
2023/04/21 14:01:38;;;;;;;14.73;12.07;;;;;;;;;;5052066;28;20210;-86
2023/04/21 14:04:06;;;;;;;19.23;14.37;;;;;;;;;;5052096;28;20221;-85
2023/04/21 14:06:36;;;;;;;16.70;14.37;;;;;;;;;;5051962;28;20232;-85
2023/04/21 14:09:06;;;;;;;10.17;8.03;;;;;;;;;;5052673;28;20205;-86
2023/04/21 14:11:34;;;;;;;21.23;10.40;;;;;;;;;;5052129;28;20198;-85
2023/04/21 14:14:03;;;;;;;15.97;11.00;;;;;;;;;;5051552;28;20237;-86
2023/04/21 14:16:34;;;;;;;14.93;11.73;;;;;;;;;;5052374;28;20237;-83
2023/04/21 14:19:03;;;;;;;20.50;18.40;;;;;;;;;;5053352;28;20198;-84
2023/04/21 14:21:31;;;;;;;18.20;13.47;;;;;;;;;;5052667;28;20206;-84
2023/04/21 14:24:00;;;;;;;15.50;10.03;;;;;;;;;;5052474;28;20195;-83
2023/04/21 14:26:30;;;;;;;16.20;11.40;;;;;;;;;;5052423;28;20202;-83
2023/04/21 14:29:00;;;;;;;16.87;12.07;;;;;;;;;;5052206;28;20209;-83
2023/04/21 14:31:28;;;;;;;17.67;13.97;;;;;;;;;;5053590;28;20198;-84
2023/04/21 14:33:57;;;;;;;22.37;12.47;;;;;;;;;;5053440;28;20198;-85
2023/04/21 14:36:26;;;;;;;15.97;13.03;;;;;;;;;;5052374;28;20249;-84
2023/04/21 14:38:55;;;;;;;13.27;10.90;;;;;;;;;;5053142;28;20293;-84